Byron Hills, Illinois
Current Conditions -  °F | °C
As of 2:52 AM on Wednesday 22 Oct 2014 (Local Time) from KDVN Reporting Station
Clear Clear  
Wind Chill: -1°   Ceiling: Unl
Heat Index:   Visibility: 10mi
Dew Point:   Wind: 8mph
Humidity: 86%   Direction: 90°E
Pressure: 30.28"   Gusts: NA
Location:  41.595°N, 90.2974°W
Report Text: KDVN 220752Z AUTO 09007KT 10SM CLR 02/00 A3028 RMK AO2 SLP257 T00220000 TSNO
Loading
Personal Weather Stations






























Interactive Weather Map
Tropical Storm Tracking
New forecast layout! Learn more

10-Day Weather Forecast

Advertisements
Track Severe Weather on mobile